sensor_id;sensor_type;location;lat;lon;timestamp;P1;durP1;ratioP1;P2;durP2;ratioP2
56477;SDS011;42382;53.210;5.772;2023-03-01T00:01:09;19.92;;;12.52;;
56477;SDS011;42382;53.210;5.772;2023-03-01T00:03:36;18.70;;;11.73;;
56477;SDS011;42382;53.210;5.772;2023-03-01T00:06:02;18.55;;;12.07;;
56477;SDS011;42382;53.210;5.772;2023-03-01T00:08:29;22.38;;;12.48;;
56477;SDS011;42382;53.210;5.772;2023-03-01T00:11:05;18.67;;;11.77;;
56477;SDS011;42382;53.210;5.772;2023-03-01T00:13:39;18.90;;;11.75;;
56477;SDS011;42382;53.210;5.772;2023-03-01T00:16:07;18.45;;;12.20;;
56477;SDS011;42382;53.210;5.772;2023-03-01T00:18:34;21.90;;;12.77;;
56477;SDS011;42382;53.210;5.772;2023-03-01T00:20:59;18.88;;;11.95;;
56477;SDS011;42382;53.210;5.772;2023-03-01T00:23:25;20.63;;;11.20;;
56477;SDS011;42382;53.210;5.772;2023-03-01T00:25:51;18.98;;;12.38;;
56477;SDS011;42382;53.210;5.772;2023-03-01T00:28:18;15.88;;;9.95;;
56477;SDS011;42382;53.210;5.772;2023-03-01T00:30:44;18.17;;;11.57;;
56477;SDS011;42382;53.210;5.772;2023-03-01T00:33:10;19.25;;;11.02;;
56477;SDS011;42382;53.210;5.772;2023-03-01T00:35:36;18.33;;;10.30;;
56477;SDS011;42382;53.210;5.772;2023-03-01T00:38:02;18.42;;;10.35;;
56477;SDS011;42382;53.210;5.772;2023-03-01T00:40:29;16.42;;;10.55;;
56477;SDS011;42382;53.210;5.772;2023-03-01T00:42:56;15.45;;;9.90;;
56477;SDS011;42382;53.210;5.772;2023-03-01T00:45:22;14.50;;;10.00;;
56477;SDS011;42382;53.210;5.772;2023-03-01T00:47:48;15.98;;;9.88;;
56477;SDS011;42382;53.210;5.772;2023-03-01T00:50:14;12.80;;;8.27;;
56477;SDS011;42382;53.210;5.772;2023-03-01T00:52:40;14.25;;;8.90;;
56477;SDS011;42382;53.210;5.772;2023-03-01T00:55:06;13.95;;;9.40;;
56477;SDS011;42382;53.210;5.772;2023-03-01T00:57:32;15.57;;;9.55;;
56477;SDS011;42382;53.210;5.772;2023-03-01T00:59:58;14.23;;;9.80;;
56477;SDS011;42382;53.210;5.772;2023-03-01T01:02:24;26.77;;;7.47;;
56477;SDS011;42382;53.210;5.772;2023-03-01T01:04:50;21.65;;;7.60;;
56477;SDS011;42382;53.210;5.772;2023-03-01T01:07:16;11.25;;;6.22;;
56477;SDS011;42382;53.210;5.772;2023-03-01T01:09:42;15.55;;;6.50;;
56477;SDS011;42382;53.210;5.772;2023-03-01T01:12:08;40.65;;;6.35;;
56477;SDS011;42382;53.210;5.772;2023-03-01T01:14:34;103.63;;;7.57;;
56477;SDS011;42382;53.210;5.772;2023-03-01T01:17:00;167.55;;;9.48;;
56477;SDS011;42382;53.210;5.772;2023-03-01T01:19:26;160.27;;;7.63;;
56477;SDS011;42382;53.210;5.772;2023-03-01T01:21:51;119.03;;;6.85;;
56477;SDS011;42382;53.210;5.772;2023-03-01T01:29:08;15.50;;;4.90;;
56477;SDS011;42382;53.210;5.772;2023-03-01T01:36:29;25.35;;;6.20;;
56477;SDS011;42382;53.210;5.772;2023-03-01T01:38:55;74.50;;;7.50;;
56477;SDS011;42382;53.210;5.772;2023-03-01T01:41:21;93.80;;;8.05;;
56477;SDS011;42382;53.210;5.772;2023-03-01T01:54:36;68.60;;;8.00;;
56477;SDS011;42382;53.210;5.772;2023-03-01T01:57:06;73.30;;;8.10;;
56477;SDS011;42382;53.210;5.772;2023-03-01T02:02:02;41.10;;;6.70;;
56477;SDS011;42382;53.210;5.772;2023-03-01T02:12:01;19.05;;;6.50;;
56477;SDS011;42382;53.210;5.772;2023-03-01T02:22:06;38.92;;;6.85;;
56477;SDS011;42382;53.210;5.772;2023-03-01T02:24:50;57.42;;;7.80;;
56477;SDS011;42382;53.210;5.772;2023-03-01T02:27:38;55.08;;;9.07;;
56477;SDS011;42382;53.210;5.772;2023-03-01T02:30:08;22.60;;;7.57;;
56477;SDS011;42382;53.210;5.772;2023-03-01T02:32:37;75.57;;;8.48;;
56477;SDS011;42382;53.210;5.772;2023-03-01T02:35:06;33.03;;;8.63;;
56477;SDS011;42382;53.210;5.772;2023-03-01T02:37:38;46.55;;;9.20;;
56477;SDS011;42382;53.210;5.772;2023-03-01T02:40:06;69.07;;;9.55;;
56477;SDS011;42382;53.210;5.772;2023-03-01T02:42:49;49.55;;;9.32;;
56477;SDS011;42382;53.210;5.772;2023-03-01T02:45:18;30.63;;;9.40;;
56477;SDS011;42382;53.210;5.772;2023-03-01T02:47:44;42.92;;;9.50;;
56477;SDS011;42382;53.210;5.772;2023-03-01T02:50:22;26.38;;;10.18;;
56477;SDS011;42382;53.210;5.772;2023-03-01T02:55:45;36.97;;;10.52;;
56477;SDS011;42382;53.210;5.772;2023-03-01T02:58:10;92.88;;;13.15;;
56477;SDS011;42382;53.210;5.772;2023-03-01T03:00:37;45.08;;;11.82;;
56477;SDS011;42382;53.210;5.772;2023-03-01T03:03:10;23.67;;;11.50;;
56477;SDS011;42382;53.210;5.772;2023-03-01T03:05:39;49.80;;;11.82;;
56477;SDS011;42382;53.210;5.772;2023-03-01T08:17:35;21.38;;;11.13;;
56477;SDS011;42382;53.210;5.772;2023-03-01T08:20:01;19.13;;;12.30;;
56477;SDS011;42382;53.210;5.772;2023-03-01T08:22:29;16.65;;;11.48;;
56477;SDS011;42382;53.210;5.772;2023-03-01T08:24:54;17.73;;;11.68;;
56477;SDS011;42382;53.210;5.772;2023-03-01T08:27:21;17.05;;;12.40;;
56477;SDS011;42382;53.210;5.772;2023-03-01T08:29:46;15.98;;;11.27;;
56477;SDS011;42382;53.210;5.772;2023-03-01T08:32:12;18.63;;;12.57;;
56477;SDS011;42382;53.210;5.772;2023-03-01T08:34:37;20.23;;;13.57;;
56477;SDS011;42382;53.210;5.772;2023-03-01T08:37:03;22.58;;;13.68;;
56477;SDS011;42382;53.210;5.772;2023-03-01T08:39:29;23.63;;;15.65;;
56477;SDS011;42382;53.210;5.772;2023-03-01T08:41:55;27.33;;;17.90;;
56477;SDS011;42382;53.210;5.772;2023-03-01T08:44:20;28.33;;;17.95;;
56477;SDS011;42382;53.210;5.772;2023-03-01T08:46:46;26.85;;;18.30;;
56477;SDS011;42382;53.210;5.772;2023-03-01T08:49:13;27.17;;;17.38;;
56477;SDS011;42382;53.210;5.772;2023-03-01T09:06:14;28.52;;;16.92;;
56477;SDS011;42382;53.210;5.772;2023-03-01T09:08:41;30.75;;;18.55;;
56477;SDS011;42382;53.210;5.772;2023-03-01T09:11:10;32.25;;;19.67;;
56477;SDS011;42382;53.210;5.772;2023-03-01T09:13:37;29.60;;;19.50;;
56477;SDS011;42382;53.210;5.772;2023-03-01T09:16:04;29.52;;;18.48;;
56477;SDS011;42382;53.210;5.772;2023-03-01T09:18:31;26.08;;;18.30;;
56477;SDS011;42382;53.210;5.772;2023-03-01T09:21:07;27.42;;;18.33;;
56477;SDS011;42382;53.210;5.772;2023-03-01T09:23:41;24.58;;;16.98;;
56477;SDS011;42382;53.210;5.772;2023-03-01T09:26:09;19.67;;;15.43;;
56477;SDS011;42382;53.210;5.772;2023-03-01T09:28:41;21.92;;;14.35;;
56477;SDS011;42382;53.210;5.772;2023-03-01T09:31:07;16.60;;;12.68;;
56477;SDS011;42382;53.210;5.772;2023-03-01T09:33:33;18.00;;;13.30;;
56477;SDS011;42382;53.210;5.772;2023-03-01T09:35:59;17.15;;;13.43;;
56477;SDS011;42382;53.210;5.772;2023-03-01T09:38:27;19.58;;;13.55;;
56477;SDS011;42382;53.210;5.772;2023-03-01T09:40:53;14.35;;;12.05;;
56477;SDS011;42382;53.210;5.772;2023-03-01T09:46:12;15.88;;;12.13;;
56477;SDS011;42382;53.210;5.772;2023-03-01T09:48:42;13.48;;;10.93;;
56477;SDS011;42382;53.210;5.772;2023-03-01T09:51:15;15.20;;;10.35;;
56477;SDS011;42382;53.210;5.772;2023-03-01T09:53:44;13.73;;;10.25;;
56477;SDS011;42382;53.210;5.772;2023-03-01T09:56:20;12.95;;;10.60;;
56477;SDS011;42382;53.210;5.772;2023-03-01T10:01:51;12.10;;;9.65;;
56477;SDS011;42382;53.210;5.772;2023-03-01T10:10:21;11.18;;;9.50;;
56477;SDS011;42382;53.210;5.772;2023-03-01T10:12:52;12.05;;;9.48;;
56477;SDS011;42382;53.210;5.772;2023-03-01T10:18:20;10.85;;;9.02;;
56477;SDS011;42382;53.210;5.772;2023-03-01T10:20:53;10.30;;;8.55;;
56477;SDS011;42382;53.210;5.772;2023-03-01T10:23:23;10.98;;;9.18;;
56477;SDS011;42382;53.210;5.772;2023-03-01T10:26:01;10.43;;;8.65;;
56477;SDS011;42382;53.210;5.772;2023-03-01T10:31:09;11.48;;;8.30;;
56477;SDS011;42382;53.210;5.772;2023-03-01T10:33:38;9.85;;;8.57;;
56477;SDS011;42382;53.210;5.772;2023-03-01T10:36:05;10.30;;;9.02;;
56477;SDS011;42382;53.210;5.772;2023-03-01T10:38:33;9.23;;;8.00;;
56477;SDS011;42382;53.210;5.772;2023-03-01T10:41:18;10.35;;;9.05;;
56477;SDS011;42382;53.210;5.772;2023-03-01T10:43:53;10.23;;;8.77;;
56477;SDS011;42382;53.210;5.772;2023-03-01T10:46:22;11.98;;;8.93;;
56477;SDS011;42382;53.210;5.772;2023-03-01T10:51:40;9.48;;;8.52;;
56477;SDS011;42382;53.210;5.772;2023-03-01T10:54:15;10.63;;;8.73;;
56477;SDS011;42382;53.210;5.772;2023-03-01T10:56:46;10.57;;;9.27;;
56477;SDS011;42382;53.210;5.772;2023-03-01T10:59:33;8.52;;;7.63;;
56477;SDS011;42382;53.210;5.772;2023-03-01T11:07:48;8.88;;;7.97;;
56477;SDS011;42382;53.210;5.772;2023-03-01T11:10:17;13.00;;;7.53;;
56477;SDS011;42382;53.210;5.772;2023-03-01T11:12:44;9.27;;;7.05;;
56477;SDS011;42382;53.210;5.772;2023-03-01T11:15:19;10.82;;;8.25;;
56477;SDS011;42382;53.210;5.772;2023-03-01T11:17:47;9.98;;;7.85;;
56477;SDS011;42382;53.210;5.772;2023-03-01T11:22:47;10.98;;;8.13;;
56477;SDS011;42382;53.210;5.772;2023-03-01T11:25:15;8.40;;;7.38;;
56477;SDS011;42382;53.210;5.772;2023-03-01T11:27:44;7.82;;;7.03;;
56477;SDS011;42382;53.210;5.772;2023-03-01T11:30:24;10.25;;;7.43;;
56477;SDS011;42382;53.210;5.772;2023-03-01T11:35:49;10.18;;;8.18;;
56477;SDS011;42382;53.210;5.772;2023-03-01T11:38:25;10.30;;;7.80;;
56477;SDS011;42382;53.210;5.772;2023-03-01T11:52:00;7.22;;;6.22;;
56477;SDS011;42382;53.210;5.772;2023-03-01T11:54:58;8.73;;;6.65;;
56477;SDS011;42382;53.210;5.772;2023-03-01T12:12:51;10.05;;;8.45;;
56477;SDS011;42382;53.210;5.772;2023-03-01T12:15:40;11.32;;;8.77;;
56477;SDS011;42382;53.210;5.772;2023-03-01T12:21:09;14.18;;;10.13;;
56477;SDS011;42382;53.210;5.772;2023-03-01T12:26:15;12.20;;;10.25;;
56477;SDS011;42382;53.210;5.772;2023-03-01T12:34:42;15.32;;;10.68;;
56477;SDS011;42382;53.210;5.772;2023-03-01T16:10:56;12.80;;;8.98;;
56477;SDS011;42382;53.210;5.772;2023-03-01T16:13:21;13.55;;;8.10;;
56477;SDS011;42382;53.210;5.772;2023-03-01T16:15:47;12.68;;;7.95;;
56477;SDS011;42382;53.210;5.772;2023-03-01T16:18:13;16.25;;;10.00;;
56477;SDS011;42382;53.210;5.772;2023-03-01T17:19:27;18.40;;;12.70;;
56477;SDS011;42382;53.210;5.772;2023-03-01T17:58:25;26.37;;;14.90;;
56477;SDS011;42382;53.210;5.772;2023-03-01T18:03:17;28.80;;;16.40;;
56477;SDS011;42382;53.210;5.772;2023-03-01T18:05:42;28.00;;;16.33;;
56477;SDS011;42382;53.210;5.772;2023-03-01T18:08:08;25.73;;;15.52;;
56477;SDS011;42382;53.210;5.772;2023-03-01T18:10:33;24.95;;;15.75;;
56477;SDS011;42382;53.210;5.772;2023-03-01T18:13:02;20.85;;;13.95;;
56477;SDS011;42382;53.210;5.772;2023-03-01T18:15:28;20.52;;;13.45;;
56477;SDS011;42382;53.210;5.772;2023-03-01T18:20:19;23.50;;;13.52;;
56477;SDS011;42382;53.210;5.772;2023-03-01T18:22:45;25.27;;;13.65;;
56477;SDS011;42382;53.210;5.772;2023-03-01T18:25:12;24.08;;;14.10;;
56477;SDS011;42382;53.210;5.772;2023-03-01T18:27:38;21.13;;;13.00;;
56477;SDS011;42382;53.210;5.772;2023-03-01T18:30:04;18.50;;;12.23;;
56477;SDS011;42382;53.210;5.772;2023-03-01T18:32:31;21.30;;;12.65;;
56477;SDS011;42382;53.210;5.772;2023-03-01T18:34:57;21.90;;;11.55;;
56477;SDS011;42382;53.210;5.772;2023-03-01T18:37:22;19.98;;;12.00;;
56477;SDS011;42382;53.210;5.772;2023-03-01T18:39:52;16.23;;;10.48;;
56477;SDS011;42382;53.210;5.772;2023-03-01T18:42:18;20.58;;;11.63;;
56477;SDS011;42382;53.210;5.772;2023-03-01T18:44:47;19.33;;;11.60;;
56477;SDS011;42382;53.210;5.772;2023-03-01T18:47:13;14.43;;;10.40;;
56477;SDS011;42382;53.210;5.772;2023-03-01T18:49:38;16.17;;;9.15;;
56477;SDS011;42382;53.210;5.772;2023-03-01T18:52:04;19.20;;;10.23;;
56477;SDS011;42382;53.210;5.772;2023-03-01T18:54:30;16.95;;;10.88;;
56477;SDS011;42382;53.210;5.772;2023-03-01T18:56:56;18.13;;;10.73;;
56477;SDS011;42382;53.210;5.772;2023-03-01T18:59:22;16.08;;;9.48;;
56477;SDS011;42382;53.210;5.772;2023-03-01T19:01:47;16.63;;;10.77;;
56477;SDS011;42382;53.210;5.772;2023-03-01T19:04:13;17.52;;;11.75;;
56477;SDS011;42382;53.210;5.772;2023-03-01T19:06:39;17.95;;;10.93;;
56477;SDS011;42382;53.210;5.772;2023-03-01T19:09:05;17.67;;;10.65;;
56477;SDS011;42382;53.210;5.772;2023-03-01T19:11:32;15.07;;;9.30;;
56477;SDS011;42382;53.210;5.772;2023-03-01T19:13:59;21.23;;;10.98;;
56477;SDS011;42382;53.210;5.772;2023-03-01T19:16:26;20.00;;;11.57;;
56477;SDS011;42382;53.210;5.772;2023-03-01T19:18:55;14.00;;;10.50;;
56477;SDS011;42382;53.210;5.772;2023-03-01T19:21:24;14.70;;;9.15;;
56477;SDS011;42382;53.210;5.772;2023-03-01T19:23:52;14.95;;;9.60;;
56477;SDS011;42382;53.210;5.772;2023-03-01T19:26:19;12.98;;;9.27;;
56477;SDS011;42382;53.210;5.772;2023-03-01T19:28:47;13.50;;;9.52;;
56477;SDS011;42382;53.210;5.772;2023-03-01T19:31:14;14.18;;;8.98;;
56477;SDS011;42382;53.210;5.772;2023-03-01T19:33:42;15.15;;;8.95;;
56477;SDS011;42382;53.210;5.772;2023-03-01T19:36:09;12.88;;;9.13;;
56477;SDS011;42382;53.210;5.772;2023-03-01T19:38:37;12.68;;;8.55;;
56477;SDS011;42382;53.210;5.772;2023-03-01T19:41:05;10.18;;;7.88;;
56477;SDS011;42382;53.210;5.772;2023-03-01T19:43:33;12.68;;;8.57;;
56477;SDS011;42382;53.210;5.772;2023-03-01T19:45:59;17.38;;;11.60;;
56477;SDS011;42382;53.210;5.772;2023-03-01T19:48:25;13.95;;;8.98;;
56477;SDS011;42382;53.210;5.772;2023-03-01T19:50:51;11.63;;;7.65;;
56477;SDS011;42382;53.210;5.772;2023-03-01T19:53:17;11.30;;;8.20;;
56477;SDS011;42382;53.210;5.772;2023-03-01T19:55:43;9.95;;;6.80;;
56477;SDS011;42382;53.210;5.772;2023-03-01T19:58:09;12.02;;;8.10;;
56477;SDS011;42382;53.210;5.772;2023-03-01T20:00:36;9.05;;;6.82;;
56477;SDS011;42382;53.210;5.772;2023-03-01T20:03:03;11.95;;;6.97;;
56477;SDS011;42382;53.210;5.772;2023-03-01T20:05:32;8.98;;;7.18;;
56477;SDS011;42382;53.210;5.772;2023-03-01T20:07:59;9.85;;;6.90;;
56477;SDS011;42382;53.210;5.772;2023-03-01T20:10:24;11.05;;;8.00;;
56477;SDS011;42382;53.210;5.772;2023-03-01T20:12:52;12.27;;;8.82;;
56477;SDS011;42382;53.210;5.772;2023-03-01T20:15:18;11.60;;;9.15;;
56477;SDS011;42382;53.210;5.772;2023-03-01T20:17:44;13.93;;;10.60;;
56477;SDS011;42382;53.210;5.772;2023-03-01T20:20:10;13.80;;;10.23;;
56477;SDS011;42382;53.210;5.772;2023-03-01T20:22:36;13.55;;;9.82;;
56477;SDS011;42382;53.210;5.772;2023-03-01T20:25:01;16.48;;;11.13;;
56477;SDS011;42382;53.210;5.772;2023-03-01T20:27:27;15.75;;;10.73;;
56477;SDS011;42382;53.210;5.772;2023-03-01T20:29:53;18.13;;;12.32;;
56477;SDS011;42382;53.210;5.772;2023-03-01T20:32:18;24.80;;;16.20;;
56477;SDS011;42382;53.210;5.772;2023-03-01T20:34:44;15.32;;;12.05;;
56477;SDS011;42382;53.210;5.772;2023-03-01T20:37:09;17.90;;;13.57;;
56477;SDS011;42382;53.210;5.772;2023-03-01T20:39:35;19.08;;;13.60;;
56477;SDS011;42382;53.210;5.772;2023-03-01T20:42:00;19.45;;;13.70;;
56477;SDS011;42382;53.210;5.772;2023-03-01T20:44:29;19.63;;;13.63;;
56477;SDS011;42382;53.210;5.772;2023-03-01T20:46:55;17.90;;;14.05;;
56477;SDS011;42382;53.210;5.772;2023-03-01T20:49:21;22.17;;;15.55;;
56477;SDS011;42382;53.210;5.772;2023-03-01T20:51:47;23.92;;;17.30;;
56477;SDS011;42382;53.210;5.772;2023-03-01T20:54:12;25.00;;;16.80;;
56477;SDS011;42382;53.210;5.772;2023-03-01T20:56:38;26.90;;;18.80;;
56477;SDS011;42382;53.210;5.772;2023-03-01T20:59:04;27.38;;;18.77;;
56477;SDS011;42382;53.210;5.772;2023-03-01T21:01:34;25.75;;;18.65;;
56477;SDS011;42382;53.210;5.772;2023-03-01T21:04:01;32.53;;;20.42;;
56477;SDS011;42382;53.210;5.772;2023-03-01T21:06:27;30.08;;;20.23;;
56477;SDS011;42382;53.210;5.772;2023-03-01T21:08:53;28.10;;;20.13;;
56477;SDS011;42382;53.210;5.772;2023-03-01T21:11:19;28.77;;;20.17;;
56477;SDS011;42382;53.210;5.772;2023-03-01T21:13:49;27.42;;;18.58;;
56477;SDS011;42382;53.210;5.772;2023-03-01T21:16:16;25.65;;;17.77;;
56477;SDS011;42382;53.210;5.772;2023-03-01T21:18:43;24.85;;;16.80;;
56477;SDS011;42382;53.210;5.772;2023-03-01T21:21:27;23.27;;;16.25;;
56477;SDS011;42382;53.210;5.772;2023-03-01T21:23:53;27.13;;;17.08;;
56477;SDS011;42382;53.210;5.772;2023-03-01T21:26:20;23.80;;;16.48;;
56477;SDS011;42382;53.210;5.772;2023-03-01T21:28:52;21.95;;;16.15;;
56477;SDS011;42382;53.210;5.772;2023-03-01T21:31:21;26.35;;;17.30;;
56477;SDS011;42382;53.210;5.772;2023-03-01T21:33:52;26.13;;;16.67;;
56477;SDS011;42382;53.210;5.772;2023-03-01T21:36:20;26.27;;;18.13;;
56477;SDS011;42382;53.210;5.772;2023-03-01T21:38:47;27.90;;;18.13;;
56477;SDS011;42382;53.210;5.772;2023-03-01T21:41:14;29.65;;;19.30;;
56477;SDS011;42382;53.210;5.772;2023-03-01T21:43:43;28.25;;;19.77;;
56477;SDS011;42382;53.210;5.772;2023-03-01T21:46:11;27.83;;;19.30;;
56477;SDS011;42382;53.210;5.772;2023-03-01T21:48:39;25.55;;;18.50;;
56477;SDS011;42382;53.210;5.772;2023-03-01T21:51:06;29.20;;;19.65;;
56477;SDS011;42382;53.210;5.772;2023-03-01T21:53:32;29.15;;;19.42;;
56477;SDS011;42382;53.210;5.772;2023-03-01T21:55:59;30.13;;;18.73;;
56477;SDS011;42382;53.210;5.772;2023-03-01T21:58:26;28.55;;;19.55;;
56477;SDS011;42382;53.210;5.772;2023-03-01T22:00:53;30.77;;;20.30;;
56477;SDS011;42382;53.210;5.772;2023-03-01T22:03:20;28.40;;;19.55;;
56477;SDS011;42382;53.210;5.772;2023-03-01T22:05:52;31.20;;;20.25;;
56477;SDS011;42382;53.210;5.772;2023-03-01T22:08:22;32.33;;;20.35;;
56477;SDS011;42382;53.210;5.772;2023-03-01T22:10:49;31.55;;;20.63;;
56477;SDS011;42382;53.210;5.772;2023-03-01T22:13:15;31.67;;;20.92;;
56477;SDS011;42382;53.210;5.772;2023-03-01T22:15:41;30.80;;;20.60;;
56477;SDS011;42382;53.210;5.772;2023-03-01T22:18:08;30.63;;;20.65;;
56477;SDS011;42382;53.210;5.772;2023-03-01T22:20:34;36.15;;;22.58;;
56477;SDS011;42382;53.210;5.772;2023-03-01T22:23:00;32.03;;;21.17;;
56477;SDS011;42382;53.210;5.772;2023-03-01T22:25:26;32.25;;;20.88;;
56477;SDS011;42382;53.210;5.772;2023-03-01T22:27:52;30.83;;;21.48;;
56477;SDS011;42382;53.210;5.772;2023-03-01T22:30:18;29.63;;;20.05;;
56477;SDS011;42382;53.210;5.772;2023-03-01T22:32:44;30.45;;;21.67;;
56477;SDS011;42382;53.210;5.772;2023-03-01T22:35:10;29.17;;;20.10;;
56477;SDS011;42382;53.210;5.772;2023-03-01T22:37:36;31.92;;;21.23;;
56477;SDS011;42382;53.210;5.772;2023-03-01T22:40:02;29.73;;;21.60;;
56477;SDS011;42382;53.210;5.772;2023-03-01T22:42:28;31.55;;;21.17;;
56477;SDS011;42382;53.210;5.772;2023-03-01T22:44:54;31.65;;;21.98;;
56477;SDS011;42382;53.210;5.772;2023-03-01T22:47:20;32.80;;;23.08;;
56477;SDS011;42382;53.210;5.772;2023-03-01T22:49:45;32.00;;;21.70;;
56477;SDS011;42382;53.210;5.772;2023-03-01T22:52:11;32.38;;;20.88;;
56477;SDS011;42382;53.210;5.772;2023-03-01T22:54:37;34.17;;;22.35;;
56477;SDS011;42382;53.210;5.772;2023-03-01T22:57:02;32.45;;;23.55;;
56477;SDS011;42382;53.210;5.772;2023-03-01T22:59:28;38.35;;;24.77;;
56477;SDS011;42382;53.210;5.772;2023-03-01T23:01:54;33.72;;;23.63;;
56477;SDS011;42382;53.210;5.772;2023-03-01T23:04:20;35.05;;;22.80;;
56477;SDS011;42382;53.210;5.772;2023-03-01T23:06:46;29.80;;;20.92;;
56477;SDS011;42382;53.210;5.772;2023-03-01T23:09:25;29.17;;;20.58;;
56477;SDS011;42382;53.210;5.772;2023-03-01T23:11:57;28.33;;;20.02;;
56477;SDS011;42382;53.210;5.772;2023-03-01T23:14:25;27.17;;;17.90;;
56477;SDS011;42382;53.210;5.772;2023-03-01T23:16:54;27.75;;;19.40;;
56477;SDS011;42382;53.210;5.772;2023-03-01T23:19:20;25.48;;;18.65;;
56477;SDS011;42382;53.210;5.772;2023-03-01T23:21:46;28.83;;;19.35;;
56477;SDS011;42382;53.210;5.772;2023-03-01T23:24:18;27.10;;;19.25;;
56477;SDS011;42382;53.210;5.772;2023-03-01T23:26:46;26.58;;;18.08;;
56477;SDS011;42382;53.210;5.772;2023-03-01T23:29:17;27.10;;;20.08;;
56477;SDS011;42382;53.210;5.772;2023-03-01T23:31:43;32.13;;;22.65;;
56477;SDS011;42382;53.210;5.772;2023-03-01T23:34:09;32.00;;;22.45;;
56477;SDS011;42382;53.210;5.772;2023-03-01T23:36:35;34.17;;;23.33;;
56477;SDS011;42382;53.210;5.772;2023-03-01T23:39:09;36.75;;;23.27;;
56477;SDS011;42382;53.210;5.772;2023-03-01T23:41:36;30.27;;;21.55;;
56477;SDS011;42382;53.210;5.772;2023-03-01T23:44:04;28.85;;;19.27;;
56477;SDS011;42382;53.210;5.772;2023-03-01T23:46:31;27.70;;;19.35;;
56477;SDS011;42382;53.210;5.772;2023-03-01T23:48:58;25.50;;;18.02;;
56477;SDS011;42382;53.210;5.772;2023-03-01T23:51:25;25.50;;;18.05;;
56477;SDS011;42382;53.210;5.772;2023-03-01T23:53:51;28.05;;;18.58;;
56477;SDS011;42382;53.210;5.772;2023-03-01T23:56:24;27.40;;;18.08;;
56477;SDS011;42382;53.210;5.772;2023-03-01T23:58:54;24.58;;;17.48;;
